aviador You're here:

KPHL Decoded Metar

PHILADELPHIA in PA, USA
Report Time2017-06-27 04:54:00
UTC Time2017-06-27 05:15:27
Flight Rules vfr VFR
Wind160° at 04 kt
W.Decomp.*RWY 17: 4.0 kt HW -0 kt LCW
RWY 09: 0.7 kt HW 3.9 kt RCW
RWY 08: 4.0 kt RCW
W.Rank160° ranks 28
Current wind is below 160° avg. (6.0)
Visibility9999 m
Phenomena:N/A
Clouds:Scattered 095 Hf
Expected CloudBase > 2,400 ft AGL from Temp-Dew spread
CeilingNone
Temp20°C (ISA +5)
Dew Point14°C (69% RH)
AAT19.9°C
QNH1015 hPa
Density Alt804 ft
Elevation59 ft
Report Wrong Elevation
Raw Report
KPHL 270454Z 16004KT 10SM SCT095 20/14 A2998 RMK AO2 LTG DSNT W
SLP152 T02000139 402780178 $=

Extra information for KPHL:More info

Metar Taf Metar & Taf Last 4 Metars F.Rules Stats Wind Profile Meteogram Temp Stats Airport Information Weather charts Add Link Nearby VenuesMetar ALERT Operation Metar Decoded Social comments

AIRNAV info for KPHL